Time;durP1;ratioP1;P1;durP2;ratioP2;P2;SDS_P1;SDS_P2;PMS_P1;PMS_P2;Temp;Humidity;BMP_temperature;BMP_pressure;BME280_temperature;BME280_humidity;BME280_pressure;Samples;Min_cycle;Max_cycle;Signal;HPM_P1;HPM_P2
2022/11/21 00:00:15;;;;;;;20.70;3.90;;;;;;;6.04;100.00;100185.19;4953077;28;20292;-75
2022/11/21 00:02:40;;;;;;;30.38;4.25;;;;;;;5.87;100.00;100194.44;4970465;28;20027;-77
2022/11/21 00:05:06;;;;;;;24.88;5.30;;;;;;;5.98;100.00;100203.78;4948676;28;20478;-74
2022/11/21 00:07:32;;;;;;;29.23;3.92;;;;;;;5.99;100.00;100195.09;4950485;28;20118;-74
2022/11/21 00:09:57;;;;;;;28.50;4.53;;;;;;;6.01;100.00;100204.31;4931398;28;20117;-74
2022/11/21 00:12:26;;;;;;;32.10;4.53;;;;;;;6.07;100.00;100207.28;4952839;28;20078;-74
2022/11/21 00:14:51;;;;;;;20.70;3.65;;;;;;;6.04;100.00;100201.44;4962063;28;20504;-74
2022/11/21 00:17:20;;;;;;;28.25;4.45;;;;;;;5.93;100.00;100204.16;4963954;28;20035;-73
2022/11/21 00:19:46;;;;;;;21.90;4.78;;;;;;;5.99;100.00;100208.81;4960628;28;20035;-74
2022/11/21 00:22:11;;;;;;;28.83;4.72;;;;;;;6.04;100.00;100206.59;4947915;28;20047;-73
2022/11/21 00:24:37;;;;;;;29.23;4.97;;;;;;;6.01;100.00;100214.63;4949144;28;20034;-74
2022/11/21 00:27:02;;;;;;;25.70;4.70;;;;;;;6.02;100.00;100218.78;4946144;28;20493;-74
2022/11/21 00:29:28;;;;;;;25.17;4.70;;;;;;;6.01;100.00;100222.34;4947010;28;20042;-74
2022/11/21 00:31:54;;;;;;;29.23;4.35;;;;;;;5.89;100.00;100217.47;4946832;28;20475;-75
2022/11/21 00:34:19;;;;;;;23.48;4.15;;;;;;;5.94;100.00;100213.53;4946286;28;20031;-75
2022/11/21 00:36:45;;;;;;;33.47;6.28;;;;;;;5.99;100.00;100221.66;4932592;28;20086;-75
2022/11/21 00:39:10;;;;;;;23.73;4.40;;;;;;;6.00;100.00;100212.97;4962487;28;20385;-74
2022/11/21 00:41:36;;;;;;;38.78;5.70;;;;;;;6.02;100.00;100207.69;4931701;28;20051;-75
2022/11/21 00:44:01;;;;;;;21.90;5.25;;;;;;;5.99;100.00;100197.66;4937379;28;21929;-74
2022/11/21 00:46:27;;;;;;;32.88;5.30;;;;;;;5.89;100.00;100205.41;4950390;28;20051;-74
2022/11/21 00:48:52;;;;;;;24.90;4.93;;;;;;;5.92;100.00;100205.13;4961275;28;20034;-74
2022/11/21 00:51:18;;;;;;;20.75;4.63;;;;;;;5.86;100.00;100213.41;4941413;28;20524;-73
2022/11/21 00:53:43;;;;;;;21.80;3.70;;;;;;;5.85;100.00;100207.44;4958811;28;20039;-74
2022/11/21 00:56:09;;;;;;;22.48;4.57;;;;;;;5.85;100.00;100209.19;4941959;28;20047;-74
2022/11/21 00:58:34;;;;;;;22.67;3.60;;;;;;;5.92;100.00;100207.69;4940453;28;20068;-74
2022/11/21 01:01:09;;;;;;;17.15;4.57;;;;;;;5.80;100.00;100209.63;4941151;28;20054;-74
2022/11/21 01:03:35;;;;;;;15.23;3.28;;;;;;;5.92;100.00;100207.69;4946585;28;20094;-74
2022/11/21 01:06:12;;;;;;;16.20;3.50;;;;;;;5.87;100.00;100206.50;4959105;28;20043;-75
2022/11/21 01:08:42;;;;;;;20.25;2.95;;;;;;;5.85;100.00;100212.59;4961571;28;20154;-74
2022/11/21 01:11:12;;;;;;;12.57;3.35;;;;;;;5.69;100.00;100203.81;4947112;28;20102;-73
2022/11/21 01:13:37;;;;;;;13.57;3.38;;;;;;;5.87;100.00;100211.66;4964324;28;20094;-75
2022/11/21 01:16:05;;;;;;;15.52;2.80;;;;;;;5.79;100.00;100207.19;4946677;28;20460;-74
2022/11/21 01:18:30;;;;;;;17.80;2.95;;;;;;;5.75;100.00;100211.00;4962234;28;20566;-75
2022/11/21 01:21:21;;;;;;;15.57;3.55;;;;;;;5.69;100.00;100220.09;4964343;28;20050;-74
2022/11/21 01:23:47;;;;;;;13.18;2.92;;;;;;;5.66;100.00;100218.59;4947521;28;20043;-74
2022/11/21 01:26:16;;;;;;;16.00;2.95;;;;;;;5.69;100.00;100230.38;4954304;28;20038;-74
2022/11/21 01:28:41;;;;;;;17.15;3.00;;;;;;;5.63;100.00;100224.03;4953957;28;20035;-74
2022/11/21 01:31:15;;;;;;;20.23;4.60;;;;;;;5.63;100.00;100236.06;4946543;28;20050;-75
2022/11/21 01:33:41;;;;;;;16.38;2.67;;;;;;;5.64;100.00;100229.97;4952527;28;20122;-75
2022/11/21 01:36:16;;;;;;;14.95;2.58;;;;;;;5.61;100.00;100233.63;4967886;28;20047;-75
2022/11/21 01:38:44;;;;;;;12.88;2.72;;;;;;;5.63;100.00;100231.75;4951672;28;20485;-74
2022/11/21 01:41:11;;;;;;;17.48;3.25;;;;;;;5.58;100.00;100222.81;4967356;28;20051;-75
2022/11/21 01:43:38;;;;;;;20.90;5.70;;;;;;;5.60;100.00;100221.72;4968642;28;20489;-75
2022/11/21 01:46:12;;;;;;;15.30;6.30;;;;;;;5.59;100.00;100217.50;4963648;28;20059;-75
2022/11/21 01:49:04;;;;;;;13.73;4.35;;;;;;;5.54;100.00;100226.59;4952180;28;20062;-75
2022/11/21 01:51:49;;;;;;;12.07;3.55;;;;;;;5.47;100.00;100231.47;4947973;28;20066;-74
2022/11/21 01:54:17;;;;;;;10.18;2.95;;;;;;;5.42;100.00;100243.91;4951158;28;20114;-74
2022/11/21 01:56:52;;;;;;;14.85;4.10;;;;;;;5.41;100.00;100237.97;4948606;28;20055;-74
2022/11/21 01:59:31;;;;;;;38.35;15.80;;;;;;;5.36;100.00;100244.47;4970950;28;20807;-74
2022/11/21 02:01:59;;;;;;;45.08;17.70;;;;;;;5.24;100.00;100230.94;4947606;28;20051;-75
2022/11/21 02:04:27;;;;;;;42.85;18.17;;;;;;;5.18;100.00;100237.44;4953831;28;20082;-74
2022/11/21 02:06:53;;;;;;;50.65;21.98;;;;;;;5.02;100.00;100237.94;4949689;28;20395;-75
2022/11/21 02:09:20;;;;;;;54.40;22.25;;;;;;;4.93;100.00;100237.94;4969113;28;20055;-75
2022/11/21 02:11:53;;;;;;;54.03;23.05;;;;;;;4.93;100.00;100255.94;4950863;28;20043;-74
2022/11/21 02:14:19;;;;;;;55.65;22.15;;;;;;;4.88;100.00;100251.19;4949201;28;20027;-74
2022/11/21 02:16:45;;;;;;;54.88;23.92;;;;;;;4.88;100.00;100252.00;4950118;28;20069;-74
2022/11/21 02:19:25;;;;;;;52.80;23.13;;;;;;;4.88;100.00;100253.78;4950068;28;20031;-74
2022/11/21 02:22:04;;;;;;;48.53;21.40;;;;;;;4.87;100.00;100252.13;4949249;28;20409;-74
2022/11/21 02:24:42;;;;;;;55.90;21.42;;;;;;;4.90;100.00;100251.03;4966972;28;20035;-75
2022/11/21 02:27:10;;;;;;;52.88;21.67;;;;;;;4.93;100.00;100255.94;4951809;28;20134;-74
2022/11/21 02:29:38;;;;;;;50.65;21.48;;;;;;;4.94;100.00;100262.69;4954737;28;20035;-74
2022/11/21 02:32:04;;;;;;;46.17;20.10;;;;;;;4.91;100.00;100260.38;4963812;28;20101;-75
2022/11/21 02:34:31;;;;;;;55.67;22.05;;;;;;;4.92;100.00;100264.59;4963673;28;20085;-74
2022/11/21 02:36:58;;;;;;;48.08;21.05;;;;;;;4.88;100.00;100264.84;4952104;28;20063;-75
2022/11/21 02:39:34;;;;;;;49.25;21.60;;;;;;;4.86;100.00;100253.09;4945395;28;20081;-74
2022/11/21 02:42:27;;;;;;;56.28;23.98;;;;;;;4.76;100.00;100253.03;4950225;28;20394;-74
2022/11/21 02:45:09;;;;;;;48.50;21.83;;;;;;;4.76;100.00;100245.34;4956757;28;20070;-74
2022/11/21 02:47:37;;;;;;;57.10;24.33;;;;;;;4.80;100.00;100246.72;4956336;28;20066;-75
2022/11/21 02:50:15;;;;;;;56.67;24.15;;;;;;;4.80;100.00;100258.72;4953197;28;20049;-75
2022/11/21 02:52:41;;;;;;;60.25;24.33;;;;;;;4.77;100.00;100249.53;4962973;28;20043;-73
2022/11/21 02:55:07;;;;;;;66.28;26.10;;;;;;;4.79;100.00;100246.84;4964463;28;20041;-75
2022/11/21 02:57:33;;;;;;;58.38;24.83;;;;;;;4.81;100.00;100256.03;4938090;29;20054;-74
2022/11/21 02:59:58;;;;;;;63.40;24.70;;;;;;;4.76;100.00;100257.38;4952839;28;20116;-74
2022/11/21 03:02:24;;;;;;;63.53;25.00;;;;;;;4.77;100.00;100257.25;4951205;28;20046;-74
2022/11/21 03:04:50;;;;;;;68.43;26.73;;;;;;;4.74;100.00;100265.22;4956859;28;20038;-74
2022/11/21 03:07:15;;;;;;;59.55;24.98;;;;;;;4.70;100.00;100261.28;4963698;28;20131;-74
2022/11/21 03:09:40;;;;;;;56.75;24.45;;;;;;;4.68;100.00;100260.59;4966158;28;20047;-74
2022/11/21 03:12:08;;;;;;;71.13;26.52;;;;;;;4.62;100.00;100253.44;4966148;28;20039;-74
2022/11/21 03:14:34;;;;;;;64.50;25.80;;;;;;;4.64;100.00;100254.09;4935283;29;20035;-75
2022/11/21 03:16:59;;;;;;;59.15;23.67;;;;;;;4.64;100.00;100252.34;4947949;28;20051;-74
2022/11/21 03:19:25;;;;;;;59.58;23.33;;;;;;;4.60;100.00;100256.13;4951622;28;20031;-75
2022/11/21 03:21:50;;;;;;;57.97;23.35;;;;;;;4.60;100.00;100258.69;4950324;28;20054;-74
2022/11/21 03:24:16;;;;;;;62.92;26.50;;;;;;;4.61;100.00;100259.50;4950137;28;20050;-74
2022/11/21 03:26:41;;;;;;;62.72;24.63;;;;;;;4.64;100.00;100260.03;4948615;28;20141;-75
2022/11/21 03:29:07;;;;;;;61.05;26.60;;;;;;;4.61;100.00;100250.03;4963282;28;20118;-74
2022/11/21 03:31:32;;;;;;;70.57;27.52;;;;;;;4.60;100.00;100261.25;4965049;28;20043;-74
2022/11/21 03:33:58;;;;;;;65.13;25.55;;;;;;;4.59;100.00;100262.19;4946544;28;20040;-74
2022/11/21 03:36:24;;;;;;;65.03;26.15;;;;;;;4.60;100.00;100263.03;4948465;28;20069;-74
2022/11/21 03:38:49;;;;;;;61.25;25.45;;;;;;;4.60;100.00;100268.16;4964973;28;20118;-74
2022/11/21 03:41:30;;;;;;;59.28;24.65;;;;;;;4.60;100.00;100274.09;4935303;28;20043;-74
2022/11/21 03:44:01;;;;;;;54.33;25.15;;;;;;;4.62;100.00;100267.06;4952353;28;20031;-74
2022/11/21 03:46:28;;;;;;;58.25;24.80;;;;;;;4.61;100.00;100257.72;4955861;28;20288;-74
2022/11/21 03:48:53;;;;;;;63.33;24.77;;;;;;;4.61;100.00;100254.34;4931108;28;20550;-74
2022/11/21 03:51:19;;;;;;;59.72;26.30;;;;;;;4.64;100.00;100251.53;4960305;28;20039;-74
2022/11/21 03:53:45;;;;;;;64.72;25.80;;;;;;;4.65;100.00;100243.72;4945046;28;20580;-74
2022/11/21 03:56:11;;;;;;;63.95;26.00;;;;;;;4.67;100.00;100246.97;4952328;28;20126;-75
2022/11/21 03:58:36;;;;;;;72.15;27.08;;;;;;;4.67;100.00;100259.78;4952136;28;20046;-74
2022/11/21 04:01:02;;;;;;;68.13;25.98;;;;;;;4.66;100.00;100258.16;4949027;28;20056;-74
2022/11/21 04:03:27;;;;;;;63.15;25.35;;;;;;;4.64;100.00;100262.63;4951952;28;20027;-74
2022/11/21 04:05:53;;;;;;;60.35;24.92;;;;;;;4.64;100.00;100257.47;4951979;28;20572;-74
2022/11/21 04:08:18;;;;;;;57.20;24.45;;;;;;;4.67;100.00;100258.97;4948278;28;20031;-74
2022/11/21 04:10:48;;;;;;;61.50;25.90;;;;;;;4.67;100.00;100259.78;4959544;28;20051;-74
2022/11/21 04:13:14;;;;;;;70.97;25.83;;;;;;;4.67;100.00;100264.09;4967130;28;20478;-74
2022/11/21 04:15:43;;;;;;;65.63;25.35;;;;;;;4.66;100.00;100265.06;4930754;28;20126;-73
2022/11/21 04:18:11;;;;;;;66.10;25.88;;;;;;;4.65;100.00;100261.69;4964391;28;20067;-74
2022/11/21 04:20:36;;;;;;;67.43;26.73;;;;;;;4.65;100.00;100258.28;4950007;28;20505;-74
2022/11/21 04:23:05;;;;;;;68.95;26.63;;;;;;;4.65;100.00;100261.69;4963061;28;20038;-73
2022/11/21 04:25:32;;;;;;;72.25;26.98;;;;;;;4.64;100.00;100260.03;4947211;28;20058;-74
2022/11/21 04:27:59;;;;;;;61.92;25.40;;;;;;;4.65;100.00;100263.41;4949859;28;20512;-74
2022/11/21 04:30:25;;;;;;;70.60;29.13;;;;;;;4.62;100.00;100263.69;4964536;28;20050;-74
2022/11/21 04:32:54;;;;;;;68.78;27.05;;;;;;;4.62;100.00;100256.00;4948729;28;20039;-74
2022/11/21 04:35:20;;;;;;;74.85;27.20;;;;;;;4.59;100.00;100257.03;4962977;28;20035;-74
2022/11/21 04:37:46;;;;;;;67.50;25.75;;;;;;;4.58;100.00;100259.78;4945716;28;20142;-74
2022/11/21 04:40:12;;;;;;;70.97;27.40;;;;;;;4.59;100.00;100261.38;4962558;28;20514;-73
2022/11/21 04:42:45;;;;;;;70.00;26.45;;;;;;;4.56;100.00;100257.31;4963259;28;20556;-74
2022/11/21 04:45:12;;;;;;;78.95;30.33;;;;;;;4.52;100.00;100265.41;4947890;28;20035;-75
2022/11/21 04:47:43;;;;;;;82.10;31.17;;;;;;;4.43;100.00;100254.97;4933534;28;20027;-75
2022/11/21 04:50:11;;;;;;;79.88;30.17;;;;;;;4.37;100.00;100252.09;4964258;28;20045;-74
2022/11/21 04:52:36;;;;;;;69.93;28.58;;;;;;;4.26;100.00;100256.41;4950949;28;21836;-74
2022/11/21 04:55:03;;;;;;;74.20;28.45;;;;;;;4.31;100.00;100263.69;4932845;28;20043;-74
2022/11/21 04:57:29;;;;;;;72.22;28.48;;;;;;;4.31;100.00;100256.00;4949629;28;20047;-73
2022/11/21 04:59:55;;;;;;;82.65;31.75;;;;;;;4.32;100.00;100261.97;4948703;28;20036;-75
2022/11/21 05:02:21;;;;;;;81.28;30.73;;;;;;;4.32;100.00;100267.91;4948410;28;20039;-75
2022/11/21 05:04:46;;;;;;;89.03;30.80;;;;;;;4.33;100.00;100266.13;4964162;28;20506;-73
2022/11/21 05:07:12;;;;;;;73.13;29.00;;;;;;;4.26;100.00;100256.41;4947548;28;20047;-75
2022/11/21 05:09:38;;;;;;;76.07;29.73;;;;;;;4.37;100.00;100244.41;4945222;28;20082;-74
2022/11/21 05:14:48;;;;;;;81.78;31.58;;;;;;;4.26;100.00;100224.78;4951273;28;20043;-74
2022/11/21 05:17:14;;;;;;;81.88;30.58;;;;;;;4.31;100.00;100214.94;4944992;28;20062;-75
2022/11/21 05:19:39;;;;;;;75.63;29.15;;;;;;;4.28;100.00;100216.00;4962709;28;20480;-74
2022/11/21 05:22:05;;;;;;;79.72;29.77;;;;;;;4.31;100.00;100229.53;4957255;28;20055;-73
2022/11/21 05:24:30;;;;;;;81.47;29.23;;;;;;;4.34;100.00;100217.25;4960549;28;20031;-75
2022/11/21 05:26:55;;;;;;;77.63;29.10;;;;;;;4.27;100.00;100222.06;4962721;28;20522;-75
2022/11/21 05:29:21;;;;;;;68.38;25.65;;;;;;;4.27;100.00;100226.41;4949782;28;20034;-75
2022/11/21 05:31:46;;;;;;;67.13;26.80;;;;;;;4.28;100.00;100228.84;4977628;23;20429;-80
2022/11/21 05:34:12;;;;;;;85.60;30.48;;;;;;;4.32;100.00;100223.47;4979967;28;20046;-80
2022/11/21 05:36:38;;;;;;;76.55;28.17;;;;;;;4.37;100.00;100224.69;4956717;28;20553;-80
2022/11/21 05:39:03;;;;;;;85.03;27.90;;;;;;;4.32;100.00;100224.25;4962910;28;20113;-80
2022/11/21 05:41:29;;;;;;;69.55;26.17;;;;;;;4.31;100.00;100222.63;4962635;28;20053;-80
2022/11/21 05:43:55;;;;;;;66.93;28.48;;;;;;;4.31;100.00;100217.50;4965780;28;20659;-80
2022/11/21 05:46:23;;;;;;;68.60;27.63;;;;;;;4.31;100.00;100217.50;4977206;28;20530;-80
2022/11/21 05:48:49;;;;;;;74.85;29.67;;;;;;;4.32;100.00;100215.75;4975539;28;20398;-80
2022/11/21 05:51:16;;;;;;;86.70;29.92;;;;;;;4.34;100.00;100211.31;4958910;28;20047;-80
2022/11/21 05:53:42;;;;;;;71.07;27.95;;;;;;;4.34;100.00;100219.00;4962161;28;20047;-80
2022/11/21 05:56:10;;;;;;;74.72;28.05;;;;;;;4.35;100.00;100223.19;4981169;28;20058;-79
2022/11/21 05:58:35;;;;;;;80.43;29.40;;;;;;;4.36;100.00;100227.38;4950989;28;20058;-80
2022/11/21 06:01:01;;;;;;;82.32;29.17;;;;;;;4.34;100.00;100227.50;4968935;28;20534;-80
2022/11/21 06:03:31;;;;;;;90.75;31.25;;;;;;;4.27;100.00;100226.41;4948605;28;20601;-80
2022/11/21 06:06:02;;;;;;;89.20;30.58;;;;;;;4.27;100.00;100224.63;4980687;28;20454;-80
2022/11/21 06:08:29;;;;;;;84.03;29.35;;;;;;;4.26;100.00;100228.16;4966591;28;20031;-80
2022/11/21 06:10:54;;;;;;;74.25;27.42;;;;;;;4.28;100.00;100225.47;4966517;28;20480;-80
2022/11/21 06:13:23;;;;;;;82.22;28.10;;;;;;;4.28;100.00;100218.56;4966071;28;20034;-80
2022/11/21 06:16:04;;;;;;;79.68;29.13;;;;;;;4.27;100.00;100222.06;4962991;28;20054;-80
2022/11/21 06:18:32;;;;;;;79.10;29.52;;;;;;;4.27;100.00;100214.38;4964381;28;20105;-80
2022/11/21 06:21:07;;;;;;;82.07;29.08;;;;;;;4.26;100.00;100210.19;4945896;28;20047;-81
2022/11/21 06:23:33;;;;;;;79.32;32.08;;;;;;;4.31;100.00;100209.78;4981913;28;20050;-80
2022/11/21 06:26:01;;;;;;;86.47;28.67;;;;;;;4.32;100.00;100208.06;4951528;28;20503;-80
2022/11/21 06:28:30;;;;;;;89.03;30.48;;;;;;;4.31;100.00;100209.00;4950269;28;20113;-80
2022/11/21 06:30:55;;;;;;;75.97;28.20;;;;;;;4.28;100.00;100208.31;4962565;28;20117;-79
2022/11/21 06:33:21;;;;;;;78.72;29.50;;;;;;;4.29;100.00;100209.94;4965739;28;20034;-80
2022/11/21 06:35:46;;;;;;;83.70;28.98;;;;;;;4.29;100.00;100204.81;4963802;28;20051;-80
2022/11/21 06:38:12;;;;;;;76.18;30.05;;;;;;;4.29;100.00;100206.53;4965026;28;20133;-80
2022/11/21 06:40:39;;;;;;;70.75;24.25;;;;;;;4.42;100.00;100211.47;4951020;28;20467;-81
2022/11/21 06:43:04;;;;;;;59.47;21.92;;;;;;;4.44;100.00;100212.13;4962656;28;20042;-80
2022/11/21 06:45:30;;;;;;;42.83;17.23;;;;;;;4.53;100.00;100219.06;4965726;28;20050;-80
2022/11/21 06:47:55;;;;;;;41.20;16.80;;;;;;;4.57;100.00;100217.03;4981109;28;20030;-80
2022/11/21 06:50:21;;;;;;;45.45;16.40;;;;;;;4.55;100.00;100209.47;4980089;28;20451;-80
2022/11/21 06:52:47;;;;;;;36.05;15.50;;;;;;;4.80;100.00;100210.75;4965660;28;20380;-80
2022/11/21 06:55:13;;;;;;;39.85;16.02;;;;;;;4.78;100.00;100209.25;4978370;28;20069;-80
2022/11/21 06:57:38;;;;;;;34.45;15.40;;;;;;;4.76;100.00;100214.50;4965868;28;20487;-80
2022/11/21 07:00:04;;;;;;;35.05;14.50;;;;;;;4.77;100.00;100215.34;4978119;28;20519;-80
2022/11/21 07:02:30;;;;;;;29.98;13.60;;;;;;;4.73;100.00;100214.78;4945008;28;20081;-80
2022/11/21 07:04:55;;;;;;;32.60;13.93;;;;;;;4.71;100.00;100213.28;4977925;28;20061;-80
2022/11/21 07:07:21;;;;;;;32.65;13.90;;;;;;;4.75;100.00;100215.47;4961496;28;20050;-80
2022/11/21 07:09:46;;;;;;;23.00;12.20;;;;;;;4.74;100.00;100198.41;4961641;28;20035;-80
2022/11/21 07:14:56;;;;;;;23.45;12.30;;;;;;;4.71;100.00;100203.84;4963710;28;20117;-79
2022/11/21 07:17:21;;;;;;;25.05;12.23;;;;;;;4.72;100.00;100204.66;4978063;28;20054;-80
2022/11/21 07:19:47;;;;;;;28.63;12.07;;;;;;;4.72;100.00;100192.59;4960837;28;20039;-80
2022/11/21 07:22:12;;;;;;;24.23;12.70;;;;;;;4.72;100.00;100199.50;4961681;28;20111;-80
2022/11/21 07:24:38;;;;;;;23.83;11.48;;;;;;;4.73;100.00;100206.25;4946003;28;20042;-80
2022/11/21 07:27:03;;;;;;;31.27;12.90;;;;;;;4.76;100.00;100200.88;4977674;28;20051;-80
2022/11/21 07:29:29;;;;;;;27.83;12.75;;;;;;;4.76;100.00;100200.88;4960657;28;20487;-80
2022/11/21 07:31:54;;;;;;;24.70;11.40;;;;;;;4.75;100.00;100199.25;4979647;28;20109;-80
2022/11/21 07:34:20;;;;;;;23.02;11.80;;;;;;;4.75;100.00;100194.91;4946740;28;20042;-79
2022/11/21 07:36:45;;;;;;;20.75;11.18;;;;;;;4.75;100.00;100199.25;4963041;28;20035;-79
2022/11/21 07:39:10;;;;;;;26.73;11.30;;;;;;;4.78;100.00;100193.84;4979511;28;20475;-80
2022/11/21 07:41:36;;;;;;;19.35;10.25;;;;;;;4.78;100.00;100196.41;4977551;28;20528;-80
2022/11/21 07:44:01;;;;;;;18.33;9.40;;;;;;;4.77;100.00;100187.91;4949160;28;20035;-79
2022/11/21 07:46:27;;;;;;;23.52;12.20;;;;;;;4.78;100.00;100194.63;4961933;28;20418;-79
2022/11/21 07:48:52;;;;;;;24.65;11.27;;;;;;;4.81;100.00;100188.44;4962889;28;20042;-79
2022/11/21 07:51:18;;;;;;;18.17;10.85;;;;;;;4.82;100.00;100187.47;4960554;28;20050;-80
2022/11/21 07:53:43;;;;;;;18.42;11.23;;;;;;;4.84;100.00;100176.16;4959525;28;20046;-79
2022/11/21 07:56:09;;;;;;;23.90;11.02;;;;;;;4.89;100.00;100165.44;4963468;28;20042;-80
2022/11/21 07:58:34;;;;;;;19.33;9.38;;;;;;;4.84;100.00;100160.72;4964096;28;20510;-79
2022/11/21 08:01:04;;;;;;;21.90;9.88;;;;;;;4.84;100.00;100173.56;4959260;28;21564;-81
2022/11/21 08:03:30;;;;;;;21.17;9.13;;;;;;;4.85;100.00;100174.38;4980350;28;20121;-80
2022/11/21 08:05:56;;;;;;;20.80;9.35;;;;;;;4.87;100.00;100178.44;4962574;28;22270;-79
2022/11/21 08:08:21;;;;;;;23.08;10.60;;;;;;;4.90;100.00;100181.66;4961992;28;20041;-80
2022/11/21 08:10:47;;;;;;;30.83;13.10;;;;;;;4.93;100.00;100178.84;4960528;28;20062;-80
2022/11/21 08:13:13;;;;;;;44.60;20.90;;;;;;;4.99;100.00;100173.16;4978841;28;20030;-80
2022/11/21 08:15:39;;;;;;;72.57;34.95;;;;;;;4.95;100.00;100175.19;4961035;28;20049;-80
2022/11/21 08:18:17;;;;;;;40.13;20.98;;;;;;;4.94;100.00;100172.78;4977548;28;20027;-79
2022/11/21 08:20:43;;;;;;;27.85;13.38;;;;;;;5.00;100.00;100177.38;4978160;28;20082;-80
2022/11/21 08:23:12;;;;;;;22.05;11.68;;;;;;;5.03;100.00;100171.97;4946822;28;20443;-81
2022/11/21 08:25:39;;;;;;;37.90;16.27;;;;;;;5.18;100.00;100172.34;4976832;28;20042;-79
2022/11/21 08:28:07;;;;;;;31.33;15.77;;;;;;;5.09;100.00;100176.56;4962599;28;20034;-80
2022/11/21 08:30:35;;;;;;;50.08;19.80;;;;;;;5.10;100.00;100175.59;4956256;28;20062;-79
2022/11/21 08:33:01;;;;;;;42.72;18.60;;;;;;;5.24;100.00;100169.25;4960385;28;20046;-80
2022/11/21 08:35:28;;;;;;;28.88;14.18;;;;;;;5.15;100.00;100163.16;4962394;28;20085;-80
2022/11/21 08:38:00;;;;;;;41.90;21.02;;;;;;;5.20;100.00;100162.75;4962836;28;20066;-80
2022/11/21 08:40:27;;;;;;;27.88;14.00;;;;;;;5.32;100.00;100166.00;4961056;28;20047;-79
2022/11/21 08:43:01;;;;;;;32.55;17.63;;;;;;;5.17;100.00;100168.97;4949564;28;20131;-79
2022/11/21 08:45:27;;;;;;;25.00;14.82;;;;;;;5.15;100.00;100163.16;4960640;28;20046;-79
2022/11/21 08:47:53;;;;;;;23.45;12.68;;;;;;;5.16;100.00;100161.38;4943615;28;20404;-79
2022/11/21 08:50:19;;;;;;;22.50;13.15;;;;;;;5.23;100.00;100154.75;4975654;28;20061;-79
2022/11/21 08:52:44;;;;;;;30.55;14.93;;;;;;;5.29;100.00;100155.97;4976375;28;20476;-80
2022/11/21 08:55:09;;;;;;;33.83;15.05;;;;;;;5.33;100.00;100158.16;4944757;28;20468;-80
2022/11/21 08:57:39;;;;;;;33.35;15.65;;;;;;;5.38;100.00;100150.81;4976685;28;20538;-79
2022/11/21 09:00:05;;;;;;;30.05;14.63;;;;;;;5.43;100.00;100148.66;4974564;28;20038;-80
2022/11/21 09:02:30;;;;;;;27.48;13.65;;;;;;;5.52;100.00;100141.88;4963571;28;20578;-79
2022/11/21 09:04:56;;;;;;;27.70;13.23;;;;;;;5.58;100.00;100130.22;4961842;28;20079;-81
2022/11/21 09:07:21;;;;;;;25.33;16.10;;;;;;;5.57;100.00;100124.25;4944384;28;20117;-79
2022/11/21 09:09:47;;;;;;;36.83;14.00;;;;;;;5.68;100.00;100119.91;4962232;28;20042;-80
2022/11/21 09:12:12;;;;;;;34.92;16.02;;;;;;;5.79;100.00;100112.81;4942740;28;20043;-79
2022/11/21 09:20:07;;;;;;;31.20;12.38;;;;;;;5.88;100.00;100111.16;4961645;28;20042;-79
2022/11/21 09:22:32;;;;;;;22.33;11.25;;;;;;;6.01;100.00;100113.44;4962940;28;20034;-79
2022/11/21 09:24:58;;;;;;;25.67;10.88;;;;;;;6.02;100.00;100113.25;4980818;28;20042;-80
2022/11/21 09:27:23;;;;;;;23.92;10.95;;;;;;;6.07;100.00;100112.06;4958173;28;20058;-81
2022/11/21 09:29:48;;;;;;;28.27;11.25;;;;;;;6.03;100.00;100107.19;4977661;28;20085;-79
2022/11/21 09:32:14;;;;;;;24.10;11.55;;;;;;;5.99;100.00;100102.44;4964739;28;20059;-81
2022/11/21 09:34:39;;;;;;;26.42;11.20;;;;;;;5.98;100.00;100100.84;4983879;28;20038;-80
2022/11/21 09:37:05;;;;;;;27.83;9.98;;;;;;;6.16;100.00;100098.28;4963450;28;20117;-79
2022/11/21 09:39:30;;;;;;;26.90;11.68;;;;;;;6.15;100.00;100104.41;4948912;28;20035;-79
2022/11/21 09:41:59;;;;;;;23.42;9.70;;;;;;;6.17;100.00;100099.94;4963687;28;20054;-79
2022/11/21 09:44:36;;;;;;;28.08;10.15;;;;;;;6.13;100.00;100099.41;4959841;28;20042;-80
2022/11/21 09:47:21;;;;;;;25.40;11.25;;;;;;;6.13;100.00;100096.03;4966075;28;20051;-80
2022/11/21 09:49:58;;;;;;;31.60;13.27;;;;;;;6.02;100.00;100099.59;4947734;28;20054;-79
2022/11/21 09:52:38;;;;;;;21.27;10.07;;;;;;;6.12;100.00;100102.94;4966036;28;20059;-80
2022/11/21 09:55:16;;;;;;;26.00;9.02;;;;;;;6.07;100.00;100097.41;4982557;28;20175;-81
2022/11/21 09:57:43;;;;;;;18.33;8.48;;;;;;;6.10;100.00;100097.09;4977787;28;20082;-79
2022/11/21 10:00:18;;;;;;;22.92;7.70;;;;;;;6.05;100.00;100091.59;4979893;28;20487;-80
2022/11/21 10:02:43;;;;;;;21.20;9.00;;;;;;;6.13;100.00;100088.31;4968437;28;20038;-84
2022/11/21 10:05:13;;;;;;;33.83;8.75;;;;;;;6.24;100.00;100085.53;4982353;28;20258;-79
2022/11/21 10:07:41;;;;;;;23.27;7.50;;;;;;;6.16;100.00;100082.84;4963339;28;20050;-81
2022/11/21 10:10:26;;;;;;;16.67;6.90;;;;;;;6.19;100.00;100070.50;4947668;28;20104;-81
2022/11/21 10:13:04;;;;;;;21.00;6.95;;;;;;;6.18;100.00;100068.09;4965733;28;20047;-80
2022/11/21 10:16:15;;;;;;;18.23;6.28;;;;;;;6.28;100.00;100062.88;4979794;28;20086;-80
2022/11/21 10:18:53;;;;;;;14.15;5.43;;;;;;;6.30;100.00;100059.19;4968470;28;20050;-82
2022/11/21 10:21:40;;;;;;;14.75;6.18;;;;;;;6.33;100.00;100053.75;4966783;28;20080;-80
2022/11/21 10:24:49;;;;;;;18.65;6.13;;;;;;;6.37;100.00;100055.06;4966008;28;20107;-79
2022/11/21 10:27:23;;;;;;;21.27;6.13;;;;;;;6.56;100.00;100050.75;4966495;28;20043;-80
2022/11/21 10:29:55;;;;;;;19.80;5.43;;;;;;;6.38;100.00;100046.38;4971022;28;20119;-80
2022/11/21 10:32:38;;;;;;;14.70;4.17;;;;;;;6.40;100.00;100041.09;4967505;28;20054;-81
2022/11/21 10:35:18;;;;;;;20.00;5.65;;;;;;;6.42;100.00;100039.16;4970067;28;20424;-79
2022/11/21 10:37:56;;;;;;;21.45;4.55;;;;;;;6.40;100.00;100023.06;4951027;28;20049;-79
2022/11/21 10:40:34;;;;;;;20.02;4.90;;;;;;;6.49;100.00;100018.81;4980342;28;20031;-80
2022/11/21 10:45:56;;;;;;;16.73;4.40;;;;;;;6.49;100.00;100011.06;4984132;28;20205;-80
2022/11/21 10:48:22;;;;;;;12.43;4.00;;;;;;;6.60;100.00;100013.41;4967118;28;20027;-82
2022/11/21 10:51:02;;;;;;;18.38;4.68;;;;;;;6.51;100.00;100015.09;4964059;28;20143;-79
2022/11/21 10:56:16;;;;;;;8.82;3.88;;;;;;;6.57;100.00;99998.25;4965858;28;20049;-79
2022/11/21 10:58:48;;;;;;;14.52;4.60;;;;;;;6.58;100.00;99995.53;4969961;28;20035;-82
2022/11/21 11:01:33;;;;;;;18.63;4.20;;;;;;;6.60;100.00;99990.22;4962901;28;20054;-81
2022/11/21 11:04:09;;;;;;;15.48;4.43;;;;;;;6.65;100.00;99980.28;4964678;28;20483;-80
2022/11/21 11:06:40;;;;;;;17.02;4.60;;;;;;;6.75;100.00;99970.69;4966661;28;20419;-81
2022/11/21 11:09:20;;;;;;;12.68;4.13;;;;;;;6.71;100.00;99968.59;4953172;28;20519;-79
2022/11/21 11:11:46;;;;;;;9.77;3.50;;;;;;;6.71;100.00;99960.84;4965047;28;20191;-80
2022/11/21 11:14:14;;;;;;;12.18;5.22;;;;;;;6.68;100.00;99964.53;4983392;28;20043;-81
2022/11/21 11:16:46;;;;;;;10.02;3.15;;;;;;;6.72;100.00;99952.94;4983410;28;20630;-79
2022/11/21 11:19:11;;;;;;;14.25;3.03;;;;;;;6.70;100.00;99948.91;4978096;28;20110;-80
2022/11/21 11:21:37;;;;;;;17.60;4.07;;;;;;;6.79;100.00;99948.81;4965751;28;20142;-82
2022/11/21 11:24:08;;;;;;;15.50;3.25;;;;;;;6.86;100.00;99943.06;4983254;28;20169;-80
2022/11/21 11:26:49;;;;;;;13.73;3.72;;;;;;;7.11;100.00;99931.09;4965509;28;20141;-81
2022/11/21 11:29:23;;;;;;;9.10;2.90;;;;;;;7.08;99.17;99927.03;4947854;28;20034;-79
2022/11/21 11:32:11;;;;;;;13.25;2.75;;;;;;;7.22;97.56;99925.66;4962223;28;20093;-80
2022/11/21 11:34:39;;;;;;;10.27;2.70;;;;;;;7.18;96.44;99924.38;4984310;28;20045;-80